sensor_id;sensor_type;location;lat;lon;timestamp;temperature;humidity
7214;DHT22;3648;50.614;13.830;2024-03-02T00:01:37;7.70;1.00
7214;DHT22;3648;50.614;13.830;2024-03-02T00:04:05;7.60;1.00
7214;DHT22;3648;50.614;13.830;2024-03-02T00:06:34;7.60;1.00
7214;DHT22;3648;50.614;13.830;2024-03-02T00:09:01;7.60;1.00
7214;DHT22;3648;50.614;13.830;2024-03-02T00:11:29;7.70;1.00
7214;DHT22;3648;50.614;13.830;2024-03-02T00:13:56;7.70;1.00
7214;DHT22;3648;50.614;13.830;2024-03-02T00:16:23;7.70;1.00
7214;DHT22;3648;50.614;13.830;2024-03-02T00:18:51;7.70;1.00
7214;DHT22;3648;50.614;13.830;2024-03-02T00:21:19;7.80;1.00
7214;DHT22;3648;50.614;13.830;2024-03-02T00:23:48;7.80;1.00
7214;DHT22;3648;50.614;13.830;2024-03-02T00:26:17;7.70;1.00
7214;DHT22;3648;50.614;13.830;2024-03-02T00:28:44;7.70;1.00
7214;DHT22;3648;50.614;13.830;2024-03-02T00:31:12;7.70;1.00
7214;DHT22;3648;50.614;13.830;2024-03-02T00:33:41;7.70;1.00
7214;DHT22;3648;50.614;13.830;2024-03-02T00:36:09;7.70;1.00
7214;DHT22;3648;50.614;13.830;2024-03-02T00:38:44;7.70;1.00
7214;DHT22;3648;50.614;13.830;2024-03-02T00:41:19;7.60;1.00
7214;DHT22;3648;50.614;13.830;2024-03-02T00:43:56;7.60;1.00
7214;DHT22;3648;50.614;13.830;2024-03-02T00:46:23;7.50;1.00
7214;DHT22;3648;50.614;13.830;2024-03-02T00:48:54;7.50;1.00
7214;DHT22;3648;50.614;13.830;2024-03-02T00:51:24;7.40;1.00
7214;DHT22;3648;50.614;13.830;2024-03-02T00:53:54;7.40;1.00
7214;DHT22;3648;50.614;13.830;2024-03-02T00:56:22;7.50;1.00
7214;DHT22;3648;50.614;13.830;2024-03-02T00:58:49;7.50;1.00
7214;DHT22;3648;50.614;13.830;2024-03-02T01:01:16;7.60;1.00
7214;DHT22;3648;50.614;13.830;2024-03-02T01:03:44;7.70;1.00
7214;DHT22;3648;50.614;13.830;2024-03-02T01:06:11;7.70;1.00
7214;DHT22;3648;50.614;13.830;2024-03-02T01:08:39;7.80;1.00
7214;DHT22;3648;50.614;13.830;2024-03-02T01:11:07;7.80;1.00
7214;DHT22;3648;50.614;13.830;2024-03-02T01:13:34;7.80;1.00
7214;DHT22;3648;50.614;13.830;2024-03-02T01:16:02;7.80;1.00
7214;DHT22;3648;50.614;13.830;2024-03-02T01:18:30;7.80;1.00
7214;DHT22;3648;50.614;13.830;2024-03-02T01:20:57;7.80;1.00
7214;DHT22;3648;50.614;13.830;2024-03-02T01:23:24;7.80;1.00
7214;DHT22;3648;50.614;13.830;2024-03-02T01:25:52;7.80;1.00
7214;DHT22;3648;50.614;13.830;2024-03-02T01:28:21;7.80;1.00
7214;DHT22;3648;50.614;13.830;2024-03-02T01:30:48;7.80;1.00
7214;DHT22;3648;50.614;13.830;2024-03-02T01:33:16;7.80;1.00
7214;DHT22;3648;50.614;13.830;2024-03-02T01:35:43;7.70;1.00
7214;DHT22;3648;50.614;13.830;2024-03-02T01:38:10;7.70;1.00
7214;DHT22;3648;50.614;13.830;2024-03-02T01:40:38;7.70;1.00
7214;DHT22;3648;50.614;13.830;2024-03-02T01:43:05;7.60;1.00
7214;DHT22;3648;50.614;13.830;2024-03-02T01:45:33;7.60;1.00
7214;DHT22;3648;50.614;13.830;2024-03-02T01:48:01;7.60;1.00
7214;DHT22;3648;50.614;13.830;2024-03-02T01:50:28;7.60;1.00
7214;DHT22;3648;50.614;13.830;2024-03-02T01:52:56;7.50;1.00
7214;DHT22;3648;50.614;13.830;2024-03-02T01:55:23;7.50;1.00
7214;DHT22;3648;50.614;13.830;2024-03-02T01:57:51;7.50;1.00
7214;DHT22;3648;50.614;13.830;2024-03-02T02:00:20;7.40;1.00
7214;DHT22;3648;50.614;13.830;2024-03-02T02:02:49;7.40;1.00
7214;DHT22;3648;50.614;13.830;2024-03-02T02:05:16;7.50;1.00
7214;DHT22;3648;50.614;13.830;2024-03-02T02:07:44;7.40;1.00
7214;DHT22;3648;50.614;13.830;2024-03-02T02:10:11;7.40;1.00
7214;DHT22;3648;50.614;13.830;2024-03-02T02:12:38;7.40;1.00
7214;DHT22;3648;50.614;13.830;2024-03-02T02:15:22;7.40;1.00
7214;DHT22;3648;50.614;13.830;2024-03-02T02:17:50;7.40;1.00
7214;DHT22;3648;50.614;13.830;2024-03-02T02:20:17;7.40;1.00
7214;DHT22;3648;50.614;13.830;2024-03-02T02:23:02;7.40;1.00
7214;DHT22;3648;50.614;13.830;2024-03-02T02:25:29;7.40;1.00
7214;DHT22;3648;50.614;13.830;2024-03-02T02:27:57;7.40;1.00
7214;DHT22;3648;50.614;13.830;2024-03-02T02:30:25;7.40;1.00
7214;DHT22;3648;50.614;13.830;2024-03-02T02:32:53;7.40;1.00
7214;DHT22;3648;50.614;13.830;2024-03-02T02:35:20;7.40;1.00
7214;DHT22;3648;50.614;13.830;2024-03-02T02:37:47;7.40;1.00
7214;DHT22;3648;50.614;13.830;2024-03-02T02:40:17;7.30;1.00
7214;DHT22;3648;50.614;13.830;2024-03-02T02:42:45;7.40;1.00
7214;DHT22;3648;50.614;13.830;2024-03-02T02:45:12;7.30;1.00
7214;DHT22;3648;50.614;13.830;2024-03-02T02:47:40;7.30;1.00
7214;DHT22;3648;50.614;13.830;2024-03-02T02:50:08;7.30;1.00
7214;DHT22;3648;50.614;13.830;2024-03-02T02:52:35;7.20;1.00
7214;DHT22;3648;50.614;13.830;2024-03-02T02:55:06;7.30;1.00
7214;DHT22;3648;50.614;13.830;2024-03-02T02:57:35;7.30;1.00
7214;DHT22;3648;50.614;13.830;2024-03-02T03:00:05;7.40;1.00
7214;DHT22;3648;50.614;13.830;2024-03-02T03:02:36;7.40;1.00
7214;DHT22;3648;50.614;13.830;2024-03-02T03:05:04;7.40;1.00
7214;DHT22;3648;50.614;13.830;2024-03-02T03:07:31;7.50;1.00
7214;DHT22;3648;50.614;13.830;2024-03-02T03:09:58;7.40;1.00
7214;DHT22;3648;50.614;13.830;2024-03-02T03:12:25;7.50;1.00
7214;DHT22;3648;50.614;13.830;2024-03-02T03:14:54;7.50;1.00
7214;DHT22;3648;50.614;13.830;2024-03-02T03:17:21;7.50;1.00
7214;DHT22;3648;50.614;13.830;2024-03-02T03:19:49;7.50;1.00
7214;DHT22;3648;50.614;13.830;2024-03-02T03:22:15;7.60;1.00
7214;DHT22;3648;50.614;13.830;2024-03-02T03:24:43;7.60;1.00
7214;DHT22;3648;50.614;13.830;2024-03-02T03:27:10;7.70;1.00
7214;DHT22;3648;50.614;13.830;2024-03-02T03:29:37;7.70;1.00
7214;DHT22;3648;50.614;13.830;2024-03-02T03:32:06;7.70;1.00
7214;DHT22;3648;50.614;13.830;2024-03-02T03:34:33;7.70;1.00
7214;DHT22;3648;50.614;13.830;2024-03-02T03:37:00;7.70;1.00
7214;DHT22;3648;50.614;13.830;2024-03-02T03:39:27;7.70;1.00
7214;DHT22;3648;50.614;13.830;2024-03-02T03:41:55;7.70;1.00
7214;DHT22;3648;50.614;13.830;2024-03-02T03:44:22;7.70;1.00
7214;DHT22;3648;50.614;13.830;2024-03-02T03:46:49;7.60;1.00
7214;DHT22;3648;50.614;13.830;2024-03-02T03:49:17;7.50;1.00
7214;DHT22;3648;50.614;13.830;2024-03-02T03:51:44;7.50;1.00
7214;DHT22;3648;50.614;13.830;2024-03-02T03:54:11;7.60;1.00
7214;DHT22;3648;50.614;13.830;2024-03-02T03:56:38;7.60;1.00
7214;DHT22;3648;50.614;13.830;2024-03-02T03:59:05;7.60;1.00
7214;DHT22;3648;50.614;13.830;2024-03-02T04:01:32;7.60;1.00
7214;DHT22;3648;50.614;13.830;2024-03-02T04:03:59;7.60;1.00
7214;DHT22;3648;50.614;13.830;2024-03-02T04:06:29;7.50;1.00
7214;DHT22;3648;50.614;13.830;2024-03-02T04:08:55;7.50;1.00
7214;DHT22;3648;50.614;13.830;2024-03-02T04:11:22;7.60;1.00
7214;DHT22;3648;50.614;13.830;2024-03-02T04:13:49;7.60;1.00
7214;DHT22;3648;50.614;13.830;2024-03-02T04:16:16;7.60;1.00
7214;DHT22;3648;50.614;13.830;2024-03-02T04:18:43;7.60;1.00
7214;DHT22;3648;50.614;13.830;2024-03-02T04:21:10;7.60;1.00
7214;DHT22;3648;50.614;13.830;2024-03-02T04:23:39;7.50;1.00
7214;DHT22;3648;50.614;13.830;2024-03-02T04:26:06;7.50;1.00
7214;DHT22;3648;50.614;13.830;2024-03-02T04:28:33;7.40;1.00
7214;DHT22;3648;50.614;13.830;2024-03-02T04:31:00;7.40;1.00
7214;DHT22;3648;50.614;13.830;2024-03-02T04:33:27;7.40;1.00
7214;DHT22;3648;50.614;13.830;2024-03-02T04:35:54;7.40;1.00
7214;DHT22;3648;50.614;13.830;2024-03-02T04:38:21;7.40;1.00
7214;DHT22;3648;50.614;13.830;2024-03-02T04:40:49;7.30;1.00
7214;DHT22;3648;50.614;13.830;2024-03-02T04:43:16;7.40;1.00
7214;DHT22;3648;50.614;13.830;2024-03-02T04:45:44;7.40;1.00
7214;DHT22;3648;50.614;13.830;2024-03-02T04:48:11;7.40;1.00
7214;DHT22;3648;50.614;13.830;2024-03-02T04:50:38;7.40;1.00
7214;DHT22;3648;50.614;13.830;2024-03-02T04:53:06;7.40;1.00
7214;DHT22;3648;50.614;13.830;2024-03-02T04:55:32;7.30;1.00
7214;DHT22;3648;50.614;13.830;2024-03-02T04:58:30;7.30;1.00
7214;DHT22;3648;50.614;13.830;2024-03-02T05:00:57;7.30;1.00
7214;DHT22;3648;50.614;13.830;2024-03-02T05:03:24;7.20;1.00
7214;DHT22;3648;50.614;13.830;2024-03-02T05:05:51;7.20;1.00
7214;DHT22;3648;50.614;13.830;2024-03-02T05:08:18;7.20;1.00
7214;DHT22;3648;50.614;13.830;2024-03-02T05:10:45;7.20;1.00
7214;DHT22;3648;50.614;13.830;2024-03-02T05:13:12;7.20;1.00
7214;DHT22;3648;50.614;13.830;2024-03-02T05:15:39;7.30;1.00
7214;DHT22;3648;50.614;13.830;2024-03-02T05:18:06;7.30;1.00
7214;DHT22;3648;50.614;13.830;2024-03-02T05:20:33;7.30;1.00
7214;DHT22;3648;50.614;13.830;2024-03-02T05:23:00;7.30;1.00
7214;DHT22;3648;50.614;13.830;2024-03-02T05:25:27;7.30;1.00
7214;DHT22;3648;50.614;13.830;2024-03-02T05:27:54;7.30;1.00
7214;DHT22;3648;50.614;13.830;2024-03-02T05:30:21;7.20;1.00
7214;DHT22;3648;50.614;13.830;2024-03-02T05:32:50;7.20;1.00
7214;DHT22;3648;50.614;13.830;2024-03-02T05:35:16;7.20;1.00
7214;DHT22;3648;50.614;13.830;2024-03-02T05:37:44;7.30;1.00
7214;DHT22;3648;50.614;13.830;2024-03-02T05:40:11;7.30;1.00
7214;DHT22;3648;50.614;13.830;2024-03-02T05:42:38;7.30;1.00
7214;DHT22;3648;50.614;13.830;2024-03-02T05:45:07;7.30;1.00
7214;DHT22;3648;50.614;13.830;2024-03-02T05:47:34;7.30;1.00
7214;DHT22;3648;50.614;13.830;2024-03-02T05:50:04;7.30;1.00
7214;DHT22;3648;50.614;13.830;2024-03-02T05:52:32;7.40;1.00
7214;DHT22;3648;50.614;13.830;2024-03-02T05:54:59;7.30;1.00
7214;DHT22;3648;50.614;13.830;2024-03-02T05:57:27;7.40;1.00
7214;DHT22;3648;50.614;13.830;2024-03-02T06:00:11;7.40;1.00
7214;DHT22;3648;50.614;13.830;2024-03-02T06:02:39;7.40;1.00
7214;DHT22;3648;50.614;13.830;2024-03-02T06:05:08;7.30;1.00
7214;DHT22;3648;50.614;13.830;2024-03-02T06:07:35;7.30;1.00
7214;DHT22;3648;50.614;13.830;2024-03-02T06:10:02;7.30;1.00
7214;DHT22;3648;50.614;13.830;2024-03-02T06:12:31;7.40;1.00
7214;DHT22;3648;50.614;13.830;2024-03-02T06:14:58;7.40;1.00
7214;DHT22;3648;50.614;13.830;2024-03-02T06:17:25;7.40;1.00
7214;DHT22;3648;50.614;13.830;2024-03-02T06:19:52;7.40;1.00
7214;DHT22;3648;50.614;13.830;2024-03-02T06:22:21;7.40;1.00
7214;DHT22;3648;50.614;13.830;2024-03-02T06:24:50;7.30;1.00
7214;DHT22;3648;50.614;13.830;2024-03-02T06:27:17;7.30;1.00
7214;DHT22;3648;50.614;13.830;2024-03-02T06:29:44;7.30;1.00
7214;DHT22;3648;50.614;13.830;2024-03-02T06:32:11;7.30;1.00
7214;DHT22;3648;50.614;13.830;2024-03-02T06:34:38;7.30;1.00
7214;DHT22;3648;50.614;13.830;2024-03-02T06:37:05;7.30;1.00
7214;DHT22;3648;50.614;13.830;2024-03-02T06:39:33;7.20;1.00
7214;DHT22;3648;50.614;13.830;2024-03-02T06:42:01;7.10;1.00
7214;DHT22;3648;50.614;13.830;2024-03-02T06:44:29;7.10;1.00
7214;DHT22;3648;50.614;13.830;2024-03-02T06:46:55;7.10;1.00
7214;DHT22;3648;50.614;13.830;2024-03-02T06:49:23;7.10;1.00
7214;DHT22;3648;50.614;13.830;2024-03-02T06:51:49;7.00;1.00
7214;DHT22;3648;50.614;13.830;2024-03-02T06:54:17;7.00;1.00
7214;DHT22;3648;50.614;13.830;2024-03-02T06:56:45;7.00;1.00
7214;DHT22;3648;50.614;13.830;2024-03-02T06:59:13;7.00;1.00
7214;DHT22;3648;50.614;13.830;2024-03-02T07:01:40;7.00;1.00
7214;DHT22;3648;50.614;13.830;2024-03-02T07:04:07;7.00;1.00
7214;DHT22;3648;50.614;13.830;2024-03-02T07:06:34;7.00;1.00
7214;DHT22;3648;50.614;13.830;2024-03-02T07:09:01;6.90;1.00
7214;DHT22;3648;50.614;13.830;2024-03-02T07:11:28;7.00;1.00
7214;DHT22;3648;50.614;13.830;2024-03-02T07:13:57;7.00;1.00
7214;DHT22;3648;50.614;13.830;2024-03-02T07:16:24;7.00;1.00
7214;DHT22;3648;50.614;13.830;2024-03-02T07:18:55;7.00;1.00
7214;DHT22;3648;50.614;13.830;2024-03-02T07:21:23;7.10;1.00
7214;DHT22;3648;50.614;13.830;2024-03-02T07:23:50;7.10;1.00
7214;DHT22;3648;50.614;13.830;2024-03-02T07:26:17;7.20;1.00
7214;DHT22;3648;50.614;13.830;2024-03-02T07:28:46;7.30;1.00
7214;DHT22;3648;50.614;13.830;2024-03-02T07:31:15;7.30;1.00
7214;DHT22;3648;50.614;13.830;2024-03-02T07:33:44;7.30;1.00
7214;DHT22;3648;50.614;13.830;2024-03-02T07:36:12;7.30;1.00
7214;DHT22;3648;50.614;13.830;2024-03-02T07:38:39;7.20;1.00
7214;DHT22;3648;50.614;13.830;2024-03-02T07:41:07;7.30;1.00
7214;DHT22;3648;50.614;13.830;2024-03-02T07:43:35;7.20;1.00
7214;DHT22;3648;50.614;13.830;2024-03-02T07:46:02;7.30;1.00
7214;DHT22;3648;50.614;13.830;2024-03-02T07:48:31;7.40;1.00
7214;DHT22;3648;50.614;13.830;2024-03-02T07:50:58;7.40;1.00
7214;DHT22;3648;50.614;13.830;2024-03-02T07:53:26;7.50;1.00
7214;DHT22;3648;50.614;13.830;2024-03-02T07:55:53;7.50;1.00
7214;DHT22;3648;50.614;13.830;2024-03-02T07:58:20;7.60;1.00
7214;DHT22;3648;50.614;13.830;2024-03-02T08:00:47;7.60;1.00
7214;DHT22;3648;50.614;13.830;2024-03-02T08:03:14;7.60;1.00
7214;DHT22;3648;50.614;13.830;2024-03-02T08:05:43;7.70;1.00
7214;DHT22;3648;50.614;13.830;2024-03-02T08:08:10;7.80;1.00
7214;DHT22;3648;50.614;13.830;2024-03-02T08:10:38;7.80;1.00
7214;DHT22;3648;50.614;13.830;2024-03-02T08:13:05;7.90;1.00
7214;DHT22;3648;50.614;13.830;2024-03-02T08:15:32;7.90;1.00
7214;DHT22;3648;50.614;13.830;2024-03-02T08:17:59;8.00;1.00
7214;DHT22;3648;50.614;13.830;2024-03-02T08:20:26;8.10;1.00
7214;DHT22;3648;50.614;13.830;2024-03-02T08:22:54;8.00;1.00
7214;DHT22;3648;50.614;13.830;2024-03-02T08:25:21;8.00;1.00
7214;DHT22;3648;50.614;13.830;2024-03-02T08:27:48;8.00;1.00
7214;DHT22;3648;50.614;13.830;2024-03-02T08:30:15;8.00;1.00
7214;DHT22;3648;50.614;13.830;2024-03-02T08:32:43;8.00;1.00
7214;DHT22;3648;50.614;13.830;2024-03-02T08:35:10;7.90;1.00
7214;DHT22;3648;50.614;13.830;2024-03-02T08:37:39;7.90;1.00
7214;DHT22;3648;50.614;13.830;2024-03-02T08:40:09;7.90;1.00
7214;DHT22;3648;50.614;13.830;2024-03-02T08:42:36;7.90;1.00
7214;DHT22;3648;50.614;13.830;2024-03-02T08:45:03;7.90;1.00
7214;DHT22;3648;50.614;13.830;2024-03-02T08:47:31;7.90;1.00
7214;DHT22;3648;50.614;13.830;2024-03-02T08:49:59;7.90;1.00
7214;DHT22;3648;50.614;13.830;2024-03-02T08:52:26;7.90;1.00
7214;DHT22;3648;50.614;13.830;2024-03-02T08:54:53;7.90;1.00
7214;DHT22;3648;50.614;13.830;2024-03-02T08:57:21;7.90;1.00
7214;DHT22;3648;50.614;13.830;2024-03-02T08:59:48;7.90;1.00
7214;DHT22;3648;50.614;13.830;2024-03-02T09:02:15;8.00;1.00
7214;DHT22;3648;50.614;13.830;2024-03-02T09:04:42;8.10;1.00
7214;DHT22;3648;50.614;13.830;2024-03-02T09:07:09;8.10;1.00
7214;DHT22;3648;50.614;13.830;2024-03-02T09:09:36;8.10;1.00
7214;DHT22;3648;50.614;13.830;2024-03-02T09:12:04;8.20;1.00
7214;DHT22;3648;50.614;13.830;2024-03-02T09:14:33;8.20;1.00
7214;DHT22;3648;50.614;13.830;2024-03-02T09:17:00;8.20;1.00
7214;DHT22;3648;50.614;13.830;2024-03-02T09:19:28;8.30;1.00
7214;DHT22;3648;50.614;13.830;2024-03-02T09:21:54;8.30;1.00
7214;DHT22;3648;50.614;13.830;2024-03-02T09:24:23;8.40;1.00
7214;DHT22;3648;50.614;13.830;2024-03-02T09:26:50;8.40;1.00
7214;DHT22;3648;50.614;13.830;2024-03-02T09:29:17;8.40;1.00
7214;DHT22;3648;50.614;13.830;2024-03-02T09:31:47;8.40;1.00
7214;DHT22;3648;50.614;13.830;2024-03-02T09:34:15;8.50;1.00
7214;DHT22;3648;50.614;13.830;2024-03-02T09:36:42;8.50;1.00
7214;DHT22;3648;50.614;13.830;2024-03-02T09:39:09;8.60;1.00
7214;DHT22;3648;50.614;13.830;2024-03-02T09:41:36;8.60;1.00
7214;DHT22;3648;50.614;13.830;2024-03-02T09:44:04;8.70;1.00
7214;DHT22;3648;50.614;13.830;2024-03-02T09:46:31;8.70;1.00
7214;DHT22;3648;50.614;13.830;2024-03-02T09:49:00;8.70;1.00
7214;DHT22;3648;50.614;13.830;2024-03-02T09:51:27;8.80;1.00
7214;DHT22;3648;50.614;13.830;2024-03-02T09:53:55;8.70;1.00
7214;DHT22;3648;50.614;13.830;2024-03-02T09:56:22;8.70;1.00
7214;DHT22;3648;50.614;13.830;2024-03-02T09:58:49;8.70;1.00
7214;DHT22;3648;50.614;13.830;2024-03-02T10:01:17;8.80;1.00
7214;DHT22;3648;50.614;13.830;2024-03-02T10:03:45;8.80;1.00
7214;DHT22;3648;50.614;13.830;2024-03-02T10:06:21;8.80;1.00
7214;DHT22;3648;50.614;13.830;2024-03-02T10:08:48;9.00;1.00
7214;DHT22;3648;50.614;13.830;2024-03-02T10:11:30;9.00;1.00
7214;DHT22;3648;50.614;13.830;2024-03-02T10:14:05;9.00;1.00
7214;DHT22;3648;50.614;13.830;2024-03-02T10:16:35;9.10;1.00
7214;DHT22;3648;50.614;13.830;2024-03-02T10:19:18;9.10;1.00
7214;DHT22;3648;50.614;13.830;2024-03-02T10:21:47;9.20;1.00
7214;DHT22;3648;50.614;13.830;2024-03-02T10:24:15;9.40;1.00
7214;DHT22;3648;50.614;13.830;2024-03-02T10:26:42;9.40;1.00
7214;DHT22;3648;50.614;13.830;2024-03-02T10:29:09;9.40;1.00
7214;DHT22;3648;50.614;13.830;2024-03-02T10:31:37;9.50;1.00
7214;DHT22;3648;50.614;13.830;2024-03-02T10:34:05;9.50;1.00
7214;DHT22;3648;50.614;13.830;2024-03-02T10:36:33;9.60;1.00
7214;DHT22;3648;50.614;13.830;2024-03-02T10:39:03;9.40;1.00
7214;DHT22;3648;50.614;13.830;2024-03-02T10:41:33;9.40;1.00
7214;DHT22;3648;50.614;13.830;2024-03-02T10:44:02;9.60;1.00
7214;DHT22;3648;50.614;13.830;2024-03-02T10:46:31;9.50;1.00
7214;DHT22;3648;50.614;13.830;2024-03-02T10:48:59;9.50;1.00
7214;DHT22;3648;50.614;13.830;2024-03-02T10:51:28;9.60;1.00
7214;DHT22;3648;50.614;13.830;2024-03-02T10:53:57;9.60;1.00
7214;DHT22;3648;50.614;13.830;2024-03-02T10:56:30;9.70;1.00
7214;DHT22;3648;50.614;13.830;2024-03-02T10:59:02;9.80;1.00
7214;DHT22;3648;50.614;13.830;2024-03-02T11:01:32;9.90;1.00
7214;DHT22;3648;50.614;13.830;2024-03-02T11:04:02;9.90;1.00
7214;DHT22;3648;50.614;13.830;2024-03-02T11:06:29;9.90;1.00
7214;DHT22;3648;50.614;13.830;2024-03-02T11:09:01;9.90;1.00
7214;DHT22;3648;50.614;13.830;2024-03-02T11:11:38;9.90;1.00
7214;DHT22;3648;50.614;13.830;2024-03-02T11:14:13;9.90;1.00
7214;DHT22;3648;50.614;13.830;2024-03-02T11:16:40;9.80;1.00
7214;DHT22;3648;50.614;13.830;2024-03-02T11:19:10;9.70;1.00
7214;DHT22;3648;50.614;13.830;2024-03-02T11:21:38;9.80;1.00
7214;DHT22;3648;50.614;13.830;2024-03-02T11:24:30;9.80;1.00
7214;DHT22;3648;50.614;13.830;2024-03-02T11:27:02;9.80;1.00
7214;DHT22;3648;50.614;13.830;2024-03-02T11:29:45;9.80;1.00
7214;DHT22;3648;50.614;13.830;2024-03-02T11:32:17;9.80;1.00
7214;DHT22;3648;50.614;13.830;2024-03-02T11:34:46;9.90;1.00
7214;DHT22;3648;50.614;13.830;2024-03-02T11:37:15;9.90;1.00
7214;DHT22;3648;50.614;13.830;2024-03-02T11:39:44;9.90;1.00
7214;DHT22;3648;50.614;13.830;2024-03-02T11:42:14;9.90;1.00
7214;DHT22;3648;50.614;13.830;2024-03-02T11:44:43;9.90;1.00
7214;DHT22;3648;50.614;13.830;2024-03-02T11:47:12;9.70;1.00
7214;DHT22;3648;50.614;13.830;2024-03-02T11:49:44;9.70;1.00
7214;DHT22;3648;50.614;13.830;2024-03-02T11:52:13;9.80;1.00
7214;DHT22;3648;50.614;13.830;2024-03-02T11:54:44;9.80;1.00
7214;DHT22;3648;50.614;13.830;2024-03-02T11:57:16;9.80;1.00
7214;DHT22;3648;50.614;13.830;2024-03-02T11:59:43;9.80;1.00
7214;DHT22;3648;50.614;13.830;2024-03-02T12:02:16;9.80;1.00
7214;DHT22;3648;50.614;13.830;2024-03-02T12:04:44;9.80;1.00
7214;DHT22;3648;50.614;13.830;2024-03-02T12:07:12;9.90;1.00
7214;DHT22;3648;50.614;13.830;2024-03-02T12:09:39;9.80;1.00
7214;DHT22;3648;50.614;13.830;2024-03-02T12:12:08;9.80;1.00
7214;DHT22;3648;50.614;13.830;2024-03-02T12:14:37;9.80;1.00
7214;DHT22;3648;50.614;13.830;2024-03-02T12:17:05;9.80;1.00
7214;DHT22;3648;50.614;13.830;2024-03-02T12:19:32;9.90;1.00
7214;DHT22;3648;50.614;13.830;2024-03-02T12:22:00;9.90;1.00
7214;DHT22;3648;50.614;13.830;2024-03-02T12:24:28;9.90;1.00
7214;DHT22;3648;50.614;13.830;2024-03-02T12:26:56;10.00;1.00
7214;DHT22;3648;50.614;13.830;2024-03-02T12:29:24;10.00;1.00
7214;DHT22;3648;50.614;13.830;2024-03-02T12:31:52;10.00;1.00
7214;DHT22;3648;50.614;13.830;2024-03-02T12:34:20;10.10;1.00
7214;DHT22;3648;50.614;13.830;2024-03-02T12:36:48;10.10;1.00
7214;DHT22;3648;50.614;13.830;2024-03-02T12:39:15;10.20;1.00
7214;DHT22;3648;50.614;13.830;2024-03-02T12:41:43;10.20;1.00
7214;DHT22;3648;50.614;13.830;2024-03-02T12:44:10;10.20;1.00
7214;DHT22;3648;50.614;13.830;2024-03-02T12:46:37;10.20;1.00
7214;DHT22;3648;50.614;13.830;2024-03-02T12:49:10;10.10;1.00
7214;DHT22;3648;50.614;13.830;2024-03-02T12:51:38;10.10;1.00
7214;DHT22;3648;50.614;13.830;2024-03-02T12:54:06;10.10;1.00
7214;DHT22;3648;50.614;13.830;2024-03-02T12:56:33;10.10;1.00
7214;DHT22;3648;50.614;13.830;2024-03-02T12:59:00;10.10;1.00
7214;DHT22;3648;50.614;13.830;2024-03-02T13:01:28;10.10;1.00
7214;DHT22;3648;50.614;13.830;2024-03-02T13:03:55;10.10;1.00
7214;DHT22;3648;50.614;13.830;2024-03-02T13:06:25;10.10;1.00
7214;DHT22;3648;50.614;13.830;2024-03-02T13:08:55;10.10;1.00
7214;DHT22;3648;50.614;13.830;2024-03-02T13:11:22;10.00;1.00
7214;DHT22;3648;50.614;13.830;2024-03-02T13:13:50;10.00;1.00
7214;DHT22;3648;50.614;13.830;2024-03-02T13:16:18;9.90;1.00
7214;DHT22;3648;50.614;13.830;2024-03-02T13:18:46;10.00;1.00
7214;DHT22;3648;50.614;13.830;2024-03-02T13:21:14;10.00;1.00
7214;DHT22;3648;50.614;13.830;2024-03-02T13:23:42;10.00;1.00
7214;DHT22;3648;50.614;13.830;2024-03-02T13:26:09;10.10;1.00
7214;DHT22;3648;50.614;13.830;2024-03-02T13:28:38;10.10;1.00
7214;DHT22;3648;50.614;13.830;2024-03-02T13:31:06;10.00;1.00
7214;DHT22;3648;50.614;13.830;2024-03-02T13:33:33;9.90;1.00
7214;DHT22;3648;50.614;13.830;2024-03-02T13:36:00;9.80;1.00
7214;DHT22;3648;50.614;13.830;2024-03-02T13:38:28;9.70;1.00
7214;DHT22;3648;50.614;13.830;2024-03-02T13:40:57;9.70;1.00
7214;DHT22;3648;50.614;13.830;2024-03-02T13:43:26;9.70;1.00
7214;DHT22;3648;50.614;13.830;2024-03-02T13:45:54;9.60;1.00
7214;DHT22;3648;50.614;13.830;2024-03-02T13:48:21;9.60;1.00
7214;DHT22;3648;50.614;13.830;2024-03-02T13:50:48;9.50;1.00
7214;DHT22;3648;50.614;13.830;2024-03-02T13:53:15;9.50;1.00
7214;DHT22;3648;50.614;13.830;2024-03-02T13:55:43;9.40;1.00
7214;DHT22;3648;50.614;13.830;2024-03-02T13:58:12;9.30;1.00
7214;DHT22;3648;50.614;13.830;2024-03-02T14:00:39;9.30;1.00
7214;DHT22;3648;50.614;13.830;2024-03-02T14:03:06;9.30;1.00
7214;DHT22;3648;50.614;13.830;2024-03-02T14:05:34;9.40;1.00
7214;DHT22;3648;50.614;13.830;2024-03-02T14:08:02;9.40;1.00
7214;DHT22;3648;50.614;13.830;2024-03-02T14:10:29;9.40;1.00
7214;DHT22;3648;50.614;13.830;2024-03-02T14:12:56;9.40;1.00
7214;DHT22;3648;50.614;13.830;2024-03-02T14:15:25;9.50;1.00
7214;DHT22;3648;50.614;13.830;2024-03-02T14:17:52;9.50;1.00
7214;DHT22;3648;50.614;13.830;2024-03-02T14:20:19;9.50;1.00
7214;DHT22;3648;50.614;13.830;2024-03-02T14:22:48;9.50;1.00
7214;DHT22;3648;50.614;13.830;2024-03-02T14:25:16;9.60;1.00
7214;DHT22;3648;50.614;13.830;2024-03-02T14:27:43;9.60;1.00
7214;DHT22;3648;50.614;13.830;2024-03-02T14:30:11;9.60;1.00
7214;DHT22;3648;50.614;13.830;2024-03-02T14:32:42;9.50;1.00
7214;DHT22;3648;50.614;13.830;2024-03-02T14:35:09;9.50;1.00
7214;DHT22;3648;50.614;13.830;2024-03-02T14:37:37;9.50;1.00
7214;DHT22;3648;50.614;13.830;2024-03-02T14:40:05;9.50;1.00
7214;DHT22;3648;50.614;13.830;2024-03-02T14:42:35;9.50;1.00
7214;DHT22;3648;50.614;13.830;2024-03-02T14:45:02;9.60;1.00
7214;DHT22;3648;50.614;13.830;2024-03-02T14:47:31;9.60;1.00
7214;DHT22;3648;50.614;13.830;2024-03-02T14:50:00;9.60;1.00
7214;DHT22;3648;50.614;13.830;2024-03-02T14:52:30;9.70;1.00
7214;DHT22;3648;50.614;13.830;2024-03-02T14:54:57;9.70;1.00
7214;DHT22;3648;50.614;13.830;2024-03-02T14:57:24;9.70;1.00
7214;DHT22;3648;50.614;13.830;2024-03-02T14:59:51;9.60;1.00
7214;DHT22;3648;50.614;13.830;2024-03-02T15:02:20;9.70;1.00
7214;DHT22;3648;50.614;13.830;2024-03-02T15:04:47;9.70;1.00
7214;DHT22;3648;50.614;13.830;2024-03-02T15:07:16;9.80;1.00
7214;DHT22;3648;50.614;13.830;2024-03-02T15:09:43;9.70;1.00
7214;DHT22;3648;50.614;13.830;2024-03-02T15:12:10;9.70;1.00
7214;DHT22;3648;50.614;13.830;2024-03-02T15:14:38;9.60;1.00
7214;DHT22;3648;50.614;13.830;2024-03-02T15:17:11;9.50;1.00
7214;DHT22;3648;50.614;13.830;2024-03-02T15:19:40;9.50;1.00
7214;DHT22;3648;50.614;13.830;2024-03-02T15:22:07;9.40;1.00
7214;DHT22;3648;50.614;13.830;2024-03-02T15:24:36;9.40;1.00
7214;DHT22;3648;50.614;13.830;2024-03-02T15:27:03;9.50;1.00
7214;DHT22;3648;50.614;13.830;2024-03-02T15:29:31;9.50;1.00
7214;DHT22;3648;50.614;13.830;2024-03-02T15:31:59;9.50;1.00
7214;DHT22;3648;50.614;13.830;2024-03-02T15:34:27;9.60;1.00
7214;DHT22;3648;50.614;13.830;2024-03-02T15:36:54;9.60;1.00
7214;DHT22;3648;50.614;13.830;2024-03-02T15:39:21;9.70;1.00
7214;DHT22;3648;50.614;13.830;2024-03-02T15:41:49;9.70;1.00
7214;DHT22;3648;50.614;13.830;2024-03-02T15:44:16;9.70;1.00
7214;DHT22;3648;50.614;13.830;2024-03-02T15:46:43;9.70;1.00
7214;DHT22;3648;50.614;13.830;2024-03-02T15:49:10;9.70;1.00
7214;DHT22;3648;50.614;13.830;2024-03-02T15:51:37;9.70;1.00
7214;DHT22;3648;50.614;13.830;2024-03-02T15:54:07;9.70;1.00
7214;DHT22;3648;50.614;13.830;2024-03-02T15:56:34;9.80;1.00
7214;DHT22;3648;50.614;13.830;2024-03-02T15:59:03;9.80;1.00
7214;DHT22;3648;50.614;13.830;2024-03-02T16:01:31;9.70;1.00
7214;DHT22;3648;50.614;13.830;2024-03-02T16:03:58;9.70;1.00
7214;DHT22;3648;50.614;13.830;2024-03-02T16:06:26;9.70;1.00
7214;DHT22;3648;50.614;13.830;2024-03-02T16:08:53;9.70;1.00
7214;DHT22;3648;50.614;13.830;2024-03-02T16:11:22;9.70;1.00
7214;DHT22;3648;50.614;13.830;2024-03-02T16:13:50;9.70;1.00
7214;DHT22;3648;50.614;13.830;2024-03-02T16:16:18;9.70;1.00
7214;DHT22;3648;50.614;13.830;2024-03-02T16:18:45;9.70;1.00
7214;DHT22;3648;50.614;13.830;2024-03-02T16:21:12;9.60;1.00
7214;DHT22;3648;50.614;13.830;2024-03-02T16:23:39;9.70;1.00